sensor_id;sensor_type;location;lat;lon;timestamp;pressure;altitude;pressure_sealevel;temperature;humidity
85082;BME280;75424;50.762;7.178;2024-03-07T00:00:35;101763.19;;;3.58;96.58
85082;BME280;75424;50.762;7.178;2024-03-07T00:03:00;101757.03;;;3.53;96.25
85082;BME280;75424;50.762;7.178;2024-03-07T00:05:26;101749.16;;;3.47;95.70
85082;BME280;75424;50.762;7.178;2024-03-07T00:07:52;101757.91;;;3.43;95.85
85082;BME280;75424;50.762;7.178;2024-03-07T00:10:17;101759.59;;;3.37;96.14
85082;BME280;75424;50.762;7.178;2024-03-07T00:12:43;101762.22;;;3.35;96.12
85082;BME280;75424;50.762;7.178;2024-03-07T00:15:11;101764.03;;;3.39;97.01
85082;BME280;75424;50.762;7.178;2024-03-07T00:17:39;101764.00;;;3.38;96.29
85082;BME280;75424;50.762;7.178;2024-03-07T00:20:06;101769.28;;;3.39;96.33
85082;BME280;75424;50.762;7.178;2024-03-07T00:22:35;101764.00;;;3.41;96.30
85082;BME280;75424;50.762;7.178;2024-03-07T00:25:01;101764.88;;;3.37;96.55
85082;BME280;75424;50.762;7.178;2024-03-07T00:27:26;101771.91;;;3.38;96.98
85082;BME280;75424;50.762;7.178;2024-03-07T00:29:52;101774.50;;;3.36;96.68
85082;BME280;75424;50.762;7.178;2024-03-07T00:32:22;101770.13;;;3.32;96.49
85082;BME280;75424;50.762;7.178;2024-03-07T00:34:48;101758.72;;;3.23;96.17
85082;BME280;75424;50.762;7.178;2024-03-07T00:37:13;101759.53;;;3.11;95.86
85082;BME280;75424;50.762;7.178;2024-03-07T00:39:39;101760.34;;;3.01;96.51
85082;BME280;75424;50.762;7.178;2024-03-07T00:42:04;101760.31;;;2.95;96.02
85082;BME280;75424;50.762;7.178;2024-03-07T00:44:29;101765.59;;;2.98;96.66
85082;BME280;75424;50.762;7.178;2024-03-07T00:46:55;101763.81;;;2.94;97.26
85082;BME280;75424;50.762;7.178;2024-03-07T00:49:22;101765.56;;;2.92;96.82
85082;BME280;75424;50.762;7.178;2024-03-07T00:51:47;101760.31;;;2.92;97.25
85082;BME280;75424;50.762;7.178;2024-03-07T00:54:12;101759.41;;;2.89;97.86
85082;BME280;75424;50.762;7.178;2024-03-07T00:56:38;101748.91;;;2.92;97.84
85082;BME280;75424;50.762;7.178;2024-03-07T00:59:04;101756.78;;;2.89;97.60
85082;BME280;75424;50.762;7.178;2024-03-07T01:01:30;101758.53;;;2.87;96.69
85082;BME280;75424;50.762;7.178;2024-03-07T01:03:56;101756.72;;;2.78;97.01
85082;BME280;75424;50.762;7.178;2024-03-07T01:06:22;101759.28;;;2.68;96.33
85082;BME280;75424;50.762;7.178;2024-03-07T01:08:47;101750.44;;;2.54;96.85
85082;BME280;75424;50.762;7.178;2024-03-07T01:11:13;101746.88;;;2.44;96.78
85082;BME280;75424;50.762;7.178;2024-03-07T01:13:39;101754.69;;;2.35;96.56
85082;BME280;75424;50.762;7.178;2024-03-07T01:16:05;101746.81;;;2.34;97.67
85082;BME280;75424;50.762;7.178;2024-03-07T01:18:31;101752.06;;;2.34;97.92
85082;BME280;75424;50.762;7.178;2024-03-07T01:21:00;101749.44;;;2.35;98.25
85082;BME280;75424;50.762;7.178;2024-03-07T01:23:26;101747.69;;;2.34;97.72
85082;BME280;75424;50.762;7.178;2024-03-07T01:25:53;101752.91;;;2.31;97.62
85082;BME280;75424;50.762;7.178;2024-03-07T01:28:20;101747.59;;;2.24;98.16
85082;BME280;75424;50.762;7.178;2024-03-07T01:30:47;101747.59;;;2.21;97.70
85082;BME280;75424;50.762;7.178;2024-03-07T01:33:12;101742.28;;;2.15;97.89
85082;BME280;75424;50.762;7.178;2024-03-07T01:35:38;101738.75;;;2.07;97.58
85082;BME280;75424;50.762;7.178;2024-03-07T01:38:03;101730.81;;;2.01;97.21
85082;BME280;75424;50.762;7.178;2024-03-07T01:40:29;101735.13;;;1.94;97.85
85082;BME280;75424;50.762;7.178;2024-03-07T01:42:54;101730.84;;;2.04;98.17
85082;BME280;75424;50.762;7.178;2024-03-07T01:45:20;101732.59;;;2.05;97.96
85082;BME280;75424;50.762;7.178;2024-03-07T01:47:45;101733.44;;;2.01;97.27
85082;BME280;75424;50.762;7.178;2024-03-07T01:50:11;101724.59;;;1.88;97.41
85082;BME280;75424;50.762;7.178;2024-03-07T01:52:38;101718.38;;;1.76;97.47
85082;BME280;75424;50.762;7.178;2024-03-07T01:55:04;101727.06;;;1.70;96.87
85082;BME280;75424;50.762;7.178;2024-03-07T01:57:30;101720.84;;;1.64;97.08
85082;BME280;75424;50.762;7.178;2024-03-07T01:59:56;101722.59;;;1.60;97.85
85082;BME280;75424;50.762;7.178;2024-03-07T02:02:22;101721.69;;;1.60;97.88
85082;BME280;75424;50.762;7.178;2024-03-07T02:04:47;101719.88;;;1.51;97.65
85082;BME280;75424;50.762;7.178;2024-03-07T02:07:12;101715.47;;;1.47;97.94
85082;BME280;75424;50.762;7.178;2024-03-07T02:09:38;101715.47;;;1.46;97.86
85082;BME280;75424;50.762;7.178;2024-03-07T02:12:04;101715.44;;;1.43;98.07
85082;BME280;75424;50.762;7.178;2024-03-07T02:14:29;101708.38;;;1.37;97.75
85082;BME280;75424;50.762;7.178;2024-03-07T02:16:55;101704.84;;;1.32;98.04
85082;BME280;75424;50.762;7.178;2024-03-07T02:19:21;101704.81;;;1.29;98.03
85082;BME280;75424;50.762;7.178;2024-03-07T02:21:47;101697.81;;;1.27;98.17
85082;BME280;75424;50.762;7.178;2024-03-07T02:24:12;101701.25;;;1.26;98.18
85082;BME280;75424;50.762;7.178;2024-03-07T02:26:37;101695.13;;;1.21;97.81
85082;BME280;75424;50.762;7.178;2024-03-07T02:29:05;101698.59;;;1.20;98.42
85082;BME280;75424;50.762;7.178;2024-03-07T02:31:30;101703.75;;;1.14;98.19
85082;BME280;75424;50.762;7.178;2024-03-07T02:34:02;101701.13;;;1.12;98.42
85082;BME280;75424;50.762;7.178;2024-03-07T02:36:28;101708.94;;;1.11;98.29
85082;BME280;75424;50.762;7.178;2024-03-07T02:38:53;101701.19;;;1.17;98.96
85082;BME280;75424;50.762;7.178;2024-03-07T02:41:19;101701.16;;;1.15;98.30
85082;BME280;75424;50.762;7.178;2024-03-07T02:43:45;101688.97;;;1.17;98.39
85082;BME280;75424;50.762;7.178;2024-03-07T02:46:10;101696.78;;;1.14;98.14
85082;BME280;75424;50.762;7.178;2024-03-07T02:48:37;101700.25;;;1.12;98.71
85082;BME280;75424;50.762;7.178;2024-03-07T02:51:03;101695.03;;;1.15;98.16
85082;BME280;75424;50.762;7.178;2024-03-07T02:53:31;101693.28;;;1.14;98.43
85082;BME280;75424;50.762;7.178;2024-03-07T02:55:56;101685.47;;;1.15;98.78
85082;BME280;75424;50.762;7.178;2024-03-07T02:58:21;101686.28;;;1.11;98.50
85082;BME280;75424;50.762;7.178;2024-03-07T03:00:47;101687.09;;;1.06;98.73
85082;BME280;75424;50.762;7.178;2024-03-07T03:03:14;101690.50;;;0.99;98.30
85082;BME280;75424;50.762;7.178;2024-03-07T03:05:39;101692.19;;;0.94;98.20
85082;BME280;75424;50.762;7.178;2024-03-07T03:08:04;101693.91;;;0.92;98.70
85082;BME280;75424;50.762;7.178;2024-03-07T03:10:32;101689.56;;;0.92;98.64
85082;BME280;75424;50.762;7.178;2024-03-07T03:12:58;101685.16;;;0.88;98.43
85082;BME280;75424;50.762;7.178;2024-03-07T03:15:24;101686.78;;;0.80;97.91
85082;BME280;75424;50.762;7.178;2024-03-07T03:17:50;101681.50;;;0.76;98.72
85082;BME280;75424;50.762;7.178;2024-03-07T03:20:15;101691.09;;;0.78;97.93
85082;BME280;75424;50.762;7.178;2024-03-07T03:22:52;101680.59;;;0.72;98.40
85082;BME280;75424;50.762;7.178;2024-03-07T03:25:19;101675.34;;;0.71;98.27
85082;BME280;75424;50.762;7.178;2024-03-07T03:27:47;101682.34;;;0.73;98.10
85082;BME280;75424;50.762;7.178;2024-03-07T03:30:12;101677.97;;;0.72;98.15
85082;BME280;75424;50.762;7.178;2024-03-07T03:32:40;101675.47;;;0.81;99.59
85082;BME280;75424;50.762;7.178;2024-03-07T03:35:06;101679.81;;;0.82;99.25
85082;BME280;75424;50.762;7.178;2024-03-07T03:37:32;101670.22;;;0.80;98.63
85082;BME280;75424;50.762;7.178;2024-03-07T03:39:58;101678.84;;;0.74;99.13
85082;BME280;75424;50.762;7.178;2024-03-07T03:42:24;101669.13;;;0.63;98.81
85082;BME280;75424;50.762;7.178;2024-03-07T03:44:49;101669.03;;;0.57;97.76
85082;BME280;75424;50.762;7.178;2024-03-07T03:47:14;101676.88;;;0.55;99.12
85082;BME280;75424;50.762;7.178;2024-03-07T03:49:40;101669.94;;;0.57;99.09
85082;BME280;75424;50.762;7.178;2024-03-07T03:52:05;101670.75;;;0.53;98.42
85082;BME280;75424;50.762;7.178;2024-03-07T03:54:30;101676.81;;;0.52;98.15
85082;BME280;75424;50.762;7.178;2024-03-07T03:56:56;101674.28;;;0.57;98.95
85082;BME280;75424;50.762;7.178;2024-03-07T03:59:21;101672.56;;;0.60;98.27
85082;BME280;75424;50.762;7.178;2024-03-07T04:01:47;101669.94;;;0.57;98.37
85082;BME280;75424;50.762;7.178;2024-03-07T04:04:13;101664.56;;;0.48;98.33
85082;BME280;75424;50.762;7.178;2024-03-07T04:06:38;101671.47;;;0.43;97.92
85082;BME280;75424;50.762;7.178;2024-03-07T04:09:04;101675.78;;;0.41;98.68
85082;BME280;75424;50.762;7.178;2024-03-07T04:11:30;101671.41;;;0.39;98.44
85082;BME280;75424;50.762;7.178;2024-03-07T04:13:55;101664.47;;;0.39;98.59
85082;BME280;75424;50.762;7.178;2024-03-07T04:16:21;101660.09;;;0.38;99.48
85082;BME280;75424;50.762;7.178;2024-03-07T04:18:46;101665.31;;;0.40;99.26
85082;BME280;75424;50.762;7.178;2024-03-07T04:21:12;101665.44;;;0.47;99.25
85082;BME280;75424;50.762;7.178;2024-03-07T04:23:40;101664.53;;;0.47;98.60
85082;BME280;75424;50.762;7.178;2024-03-07T04:26:05;101662.78;;;0.46;99.21
85082;BME280;75424;50.762;7.178;2024-03-07T04:28:30;101664.47;;;0.41;98.78
85082;BME280;75424;50.762;7.178;2024-03-07T04:30:55;101666.13;;;0.36;98.42
85082;BME280;75424;50.762;7.178;2024-03-07T04:33:21;101659.09;;;0.29;98.98
85082;BME280;75424;50.762;7.178;2024-03-07T04:35:46;101652.97;;;0.28;99.31
85082;BME280;75424;50.762;7.178;2024-03-07T04:38:11;101660.03;;;0.34;99.29
85082;BME280;75424;50.762;7.178;2024-03-07T04:40:41;101656.66;;;0.42;98.73
85082;BME280;75424;50.762;7.178;2024-03-07T04:43:06;101655.75;;;0.40;99.01
85082;BME280;75424;50.762;7.178;2024-03-07T04:45:32;101650.50;;;0.39;99.53
85082;BME280;75424;50.762;7.178;2024-03-07T04:47:59;101661.09;;;0.48;100.00
85082;BME280;75424;50.762;7.178;2024-03-07T04:50:24;101648.84;;;0.47;98.91
85082;BME280;75424;50.762;7.178;2024-03-07T04:52:51;101645.31;;;0.42;98.44
85082;BME280;75424;50.762;7.178;2024-03-07T04:55:17;101647.97;;;0.45;99.23
85082;BME280;75424;50.762;7.178;2024-03-07T04:57:43;101641.94;;;0.50;99.19
85082;BME280;75424;50.762;7.178;2024-03-07T05:00:12;101648.88;;;0.48;99.49
85082;BME280;75424;50.762;7.178;2024-03-07T05:02:45;101646.22;;;0.45;99.29
85082;BME280;75424;50.762;7.178;2024-03-07T05:05:11;101647.03;;;0.38;99.05
85082;BME280;75424;50.762;7.178;2024-03-07T05:07:38;101650.47;;;0.34;98.50
85082;BME280;75424;50.762;7.178;2024-03-07T05:10:04;101647.81;;;0.33;98.33
85082;BME280;75424;50.762;7.178;2024-03-07T05:12:30;101652.16;;;0.32;98.60
85082;BME280;75424;50.762;7.178;2024-03-07T05:14:56;101656.59;;;0.38;98.88
85082;BME280;75424;50.762;7.178;2024-03-07T05:17:21;101654.22;;;0.56;99.47
85082;BME280;75424;50.762;7.178;2024-03-07T05:19:47;101649.16;;;0.69;99.89
85082;BME280;75424;50.762;7.178;2024-03-07T05:22:14;101641.47;;;0.81;99.71
85082;BME280;75424;50.762;7.178;2024-03-07T05:24:41;101643.38;;;0.97;100.00
85082;BME280;75424;50.762;7.178;2024-03-07T05:27:08;101647.03;;;1.11;99.96
85082;BME280;75424;50.762;7.178;2024-03-07T05:29:36;101642.75;;;1.19;100.00
85082;BME280;75424;50.762;7.178;2024-03-07T05:32:20;101649.00;;;1.33;99.73
85082;BME280;75424;50.762;7.178;2024-03-07T05:34:47;101655.19;;;1.40;99.89
85082;BME280;75424;50.762;7.178;2024-03-07T05:37:13;101658.69;;;1.45;99.71
85082;BME280;75424;50.762;7.178;2024-03-07T05:39:38;101652.63;;;1.49;100.00
85082;BME280;75424;50.762;7.178;2024-03-07T05:42:04;101651.81;;;1.53;99.78
85082;BME280;75424;50.762;7.178;2024-03-07T05:44:29;101657.03;;;1.54;99.49
85082;BME280;75424;50.762;7.178;2024-03-07T05:46:54;101651.81;;;1.51;99.86
85082;BME280;75424;50.762;7.178;2024-03-07T05:49:20;101653.50;;;1.48;99.54
85082;BME280;75424;50.762;7.178;2024-03-07T05:51:46;101656.09;;;1.46;99.28
85082;BME280;75424;50.762;7.178;2024-03-07T05:54:12;101656.91;;;1.41;99.02
85082;BME280;75424;50.762;7.178;2024-03-07T05:56:39;101646.38;;;1.32;98.47
85082;BME280;75424;50.762;7.178;2024-03-07T05:59:05;101655.03;;;1.25;98.51
85082;BME280;75424;50.762;7.178;2024-03-07T06:01:38;101648.91;;;1.23;98.88
85082;BME280;75424;50.762;7.178;2024-03-07T06:04:05;101648.84;;;1.17;98.25
85082;BME280;75424;50.762;7.178;2024-03-07T06:06:32;101653.22;;;1.19;99.10
85082;BME280;75424;50.762;7.178;2024-03-07T06:08:58;101650.63;;;1.21;98.77
85082;BME280;75424;50.762;7.178;2024-03-07T06:11:24;101653.25;;;1.21;98.77
85082;BME280;75424;50.762;7.178;2024-03-07T06:13:50;101654.97;;;1.17;98.60
85082;BME280;75424;50.762;7.178;2024-03-07T06:16:16;101649.81;;;1.26;98.80
85082;BME280;75424;50.762;7.178;2024-03-07T06:18:43;101650.75;;;1.34;99.01
85082;BME280;75424;50.762;7.178;2024-03-07T06:21:10;101650.84;;;1.42;98.80
85082;BME280;75424;50.762;7.178;2024-03-07T06:23:35;101649.97;;;1.43;98.55
85082;BME280;75424;50.762;7.178;2024-03-07T06:26:01;101657.78;;;1.40;98.93
85082;BME280;75424;50.762;7.178;2024-03-07T06:28:28;101652.53;;;1.37;98.71
85082;BME280;75424;50.762;7.178;2024-03-07T06:30:54;101648.13;;;1.34;98.36
85082;BME280;75424;50.762;7.178;2024-03-07T06:33:20;101654.28;;;1.36;98.40
85082;BME280;75424;50.762;7.178;2024-03-07T06:35:47;101655.09;;;1.34;98.22
85082;BME280;75424;50.762;7.178;2024-03-07T06:38:13;101649.88;;;1.34;97.95
85082;BME280;75424;50.762;7.178;2024-03-07T06:40:39;101649.88;;;1.31;98.19
85082;BME280;75424;50.762;7.178;2024-03-07T06:43:06;101655.19;;;1.40;97.96
85082;BME280;75424;50.762;7.178;2024-03-07T06:45:32;101655.25;;;1.47;98.53
85082;BME280;75424;50.762;7.178;2024-03-07T06:47:58;101652.63;;;1.49;98.62
85082;BME280;75424;50.762;7.178;2024-03-07T06:50:23;101653.59;;;1.60;98.85
85082;BME280;75424;50.762;7.178;2024-03-07T06:52:49;101648.41;;;1.64;98.41
85082;BME280;75424;50.762;7.178;2024-03-07T06:55:17;101658.06;;;1.70;98.52
85082;BME280;75424;50.762;7.178;2024-03-07T06:57:46;101645.88;;;1.72;98.23
85082;BME280;75424;50.762;7.178;2024-03-07T07:00:12;101653.75;;;1.76;98.51
85082;BME280;75424;50.762;7.178;2024-03-07T07:02:40;101649.44;;;1.83;97.89
85082;BME280;75424;50.762;7.178;2024-03-07T07:05:06;101646.00;;;1.90;97.77
85082;BME280;75424;50.762;7.178;2024-03-07T07:07:38;101643.41;;;1.94;98.33
85082;BME280;75424;50.762;7.178;2024-03-07T07:10:07;101654.78;;;1.95;98.09
85082;BME280;75424;50.762;7.178;2024-03-07T07:12:37;101646.13;;;2.08;98.28
85082;BME280;75424;50.762;7.178;2024-03-07T07:15:03;101652.34;;;2.23;98.71
85082;BME280;75424;50.762;7.178;2024-03-07T07:17:29;101642.81;;;2.37;97.23
85082;BME280;75424;50.762;7.178;2024-03-07T07:19:57;101645.53;;;2.51;95.46
85082;BME280;75424;50.762;7.178;2024-03-07T07:22:22;101649.00;;;2.51;96.26
85082;BME280;75424;50.762;7.178;2024-03-07T07:24:48;101642.91;;;2.55;96.02
85082;BME280;75424;50.762;7.178;2024-03-07T07:27:13;101644.69;;;2.61;95.31
85082;BME280;75424;50.762;7.178;2024-03-07T07:29:38;101639.47;;;2.64;95.88
85082;BME280;75424;50.762;7.178;2024-03-07T07:32:05;101650.00;;;2.74;96.43
85082;BME280;75424;50.762;7.178;2024-03-07T07:34:30;101638.69;;;2.92;94.37
85082;BME280;75424;50.762;7.178;2024-03-07T07:36:55;101644.00;;;3.04;93.57
85082;BME280;75424;50.762;7.178;2024-03-07T07:39:22;101632.59;;;3.05;94.87
85082;BME280;75424;50.762;7.178;2024-03-07T07:41:47;101638.72;;;3.07;94.75
85082;BME280;75424;50.762;7.178;2024-03-07T07:44:12;101631.75;;;3.16;93.37
85082;BME280;75424;50.762;7.178;2024-03-07T07:46:39;101643.16;;;3.23;93.01
85082;BME280;75424;50.762;7.178;2024-03-07T07:49:06;101635.25;;;3.26;92.26
85082;BME280;75424;50.762;7.178;2024-03-07T07:51:31;101631.78;;;3.33;91.91
85082;BME280;75424;50.762;7.178;2024-03-07T07:53:56;101633.53;;;3.35;93.49
85082;BME280;75424;50.762;7.178;2024-03-07T07:56:23;101634.44;;;3.49;93.33
85082;BME280;75424;50.762;7.178;2024-03-07T07:58:49;101631.81;;;3.57;92.02
85082;BME280;75424;50.762;7.178;2024-03-07T08:01:15;101624.81;;;3.66;93.15
85082;BME280;75424;50.762;7.178;2024-03-07T08:03:42;101632.69;;;3.83;91.31
85082;BME280;75424;50.762;7.178;2024-03-07T08:06:09;101632.69;;;3.93;90.49
85082;BME280;75424;50.762;7.178;2024-03-07T08:08:34;101629.19;;;3.97;90.97
85082;BME280;75424;50.762;7.178;2024-03-07T08:10:59;101627.41;;;4.04;89.98
85082;BME280;75424;50.762;7.178;2024-03-07T08:13:26;101623.88;;;4.10;88.39
85082;BME280;75424;50.762;7.178;2024-03-07T08:15:52;101631.72;;;4.37;86.97
85082;BME280;75424;50.762;7.178;2024-03-07T08:18:19;101611.56;;;4.40;86.74
85082;BME280;75424;50.762;7.178;2024-03-07T08:20:45;101615.03;;;4.42;85.51
85082;BME280;75424;50.762;7.178;2024-03-07T08:23:11;101616.78;;;4.45;86.15
85082;BME280;75424;50.762;7.178;2024-03-07T08:25:38;101609.78;;;4.48;85.33
85082;BME280;75424;50.762;7.178;2024-03-07T08:28:06;101600.03;;;4.65;83.42
85082;BME280;75424;50.762;7.178;2024-03-07T08:30:32;101610.53;;;4.74;84.50
85082;BME280;75424;50.762;7.178;2024-03-07T08:32:58;101602.59;;;4.79;84.58
85082;BME280;75424;50.762;7.178;2024-03-07T08:35:30;101599.06;;;4.86;84.58
85082;BME280;75424;50.762;7.178;2024-03-07T08:37:55;101602.53;;;4.94;83.28
85082;BME280;75424;50.762;7.178;2024-03-07T08:40:25;101597.97;;;5.21;81.73
85082;BME280;75424;50.762;7.178;2024-03-07T08:42:52;101601.38;;;5.37;80.02
85082;BME280;75424;50.762;7.178;2024-03-07T08:45:21;101595.22;;;5.41;79.45
85082;BME280;75424;50.762;7.178;2024-03-07T08:47:51;101590.75;;;5.46;78.72
85082;BME280;75424;50.762;7.178;2024-03-07T08:50:17;101591.53;;;5.60;77.31
85082;BME280;75424;50.762;7.178;2024-03-07T08:52:44;101602.16;;;5.51;76.74
85082;BME280;75424;50.762;7.178;2024-03-07T08:55:12;101589.00;;;5.49;76.42
85082;BME280;75424;50.762;7.178;2024-03-07T08:57:40;101602.97;;;5.62;75.98
85082;BME280;75424;50.762;7.178;2024-03-07T09:00:07;101605.53;;;5.69;77.29
85082;BME280;75424;50.762;7.178;2024-03-07T09:02:38;101599.34;;;5.72;76.48
85082;BME280;75424;50.762;7.178;2024-03-07T09:05:05;101598.44;;;5.74;76.79
85082;BME280;75424;50.762;7.178;2024-03-07T09:07:30;101595.69;;;5.91;74.45
85082;BME280;75424;50.762;7.178;2024-03-07T09:09:56;101592.16;;;5.92;73.03
85082;BME280;75424;50.762;7.178;2024-03-07T09:12:22;101599.25;;;5.87;74.55
85082;BME280;75424;50.762;7.178;2024-03-07T09:14:51;101587.72;;;5.95;74.32
85082;BME280;75424;50.762;7.178;2024-03-07T09:17:17;101589.41;;;6.04;74.95
85082;BME280;75424;50.762;7.178;2024-03-07T09:19:42;101595.41;;;6.18;73.67
85082;BME280;75424;50.762;7.178;2024-03-07T09:22:08;101589.16;;;6.25;73.89
85082;BME280;75424;50.762;7.178;2024-03-07T09:24:33;101582.94;;;6.32;71.29
85082;BME280;75424;50.762;7.178;2024-03-07T09:27:00;101589.72;;;6.54;70.74
85082;BME280;75424;50.762;7.178;2024-03-07T09:29:26;101586.69;;;6.84;71.75
85082;BME280;75424;50.762;7.178;2024-03-07T09:31:53;101579.31;;;7.07;70.01
85082;BME280;75424;50.762;7.178;2024-03-07T09:34:19;101585.25;;;7.24;68.25
85082;BME280;75424;50.762;7.178;2024-03-07T09:36:47;101580.81;;;7.24;67.25
85082;BME280;75424;50.762;7.178;2024-03-07T09:39:12;101581.75;;;7.20;67.71
85082;BME280;75424;50.762;7.178;2024-03-07T09:41:38;101576.44;;;7.22;66.96
85082;BME280;75424;50.762;7.178;2024-03-07T09:44:05;101579.88;;;7.28;66.41
85082;BME280;75424;50.762;7.178;2024-03-07T09:46:31;101569.16;;;7.39;66.03
85082;BME280;75424;50.762;7.178;2024-03-07T09:48:57;101574.06;;;7.60;65.55
85082;BME280;75424;50.762;7.178;2024-03-07T09:51:25;101572.91;;;7.76;65.49
85082;BME280;75424;50.762;7.178;2024-03-07T09:53:53;101559.28;;;7.99;65.47
85082;BME280;75424;50.762;7.178;2024-03-07T09:56:21;101575.94;;;8.04;64.42
85082;BME280;75424;50.762;7.178;2024-03-07T09:58:51;101559.28;;;7.99;65.46
85082;BME280;75424;50.762;7.178;2024-03-07T10:01:20;101560.94;;;8.04;66.28
85082;BME280;75424;50.762;7.178;2024-03-07T10:03:50;101557.06;;;8.25;65.04
85082;BME280;75424;50.762;7.178;2024-03-07T10:06:19;101554.97;;;8.39;63.44
85082;BME280;75424;50.762;7.178;2024-03-07T10:08:47;101553.38;;;8.33;63.33
85082;BME280;75424;50.762;7.178;2024-03-07T10:11:12;101544.25;;;8.46;62.92
85082;BME280;75424;50.762;7.178;2024-03-07T10:13:39;101532.69;;;8.50;61.97
85082;BME280;75424;50.762;7.178;2024-03-07T10:16:06;101534.63;;;8.42;62.85
85082;BME280;75424;50.762;7.178;2024-03-07T10:18:33;101525.97;;;8.34;62.44
85082;BME280;75424;50.762;7.178;2024-03-07T10:21:06;101527.09;;;8.21;63.55
85082;BME280;75424;50.762;7.178;2024-03-07T10:23:31;101518.53;;;8.07;63.41
85082;BME280;75424;50.762;7.178;2024-03-07T10:25:59;101516.94;;;7.99;63.26
85082;BME280;75424;50.762;7.178;2024-03-07T10:28:27;101511.78;;;7.91;62.08
85082;BME280;75424;50.762;7.178;2024-03-07T10:30:56;101511.72;;;7.94;63.26
85082;BME280;75424;50.762;7.178;2024-03-07T10:33:27;101511.81;;;7.90;63.89
85082;BME280;75424;50.762;7.178;2024-03-07T10:35:52;101515.41;;;7.86;63.99
85082;BME280;75424;50.762;7.178;2024-03-07T10:38:18;101512.63;;;7.93;63.71
85082;BME280;75424;50.762;7.178;2024-03-07T10:40:47;101509.66;;;8.10;64.17
85082;BME280;75424;50.762;7.178;2024-03-07T10:43:12;101507.47;;;8.33;63.63
85082;BME280;75424;50.762;7.178;2024-03-07T10:45:44;101510.41;;;8.60;62.00
85082;BME280;75424;50.762;7.178;2024-03-07T10:48:13;101507.38;;;8.77;60.93
85082;BME280;75424;50.762;7.178;2024-03-07T10:50:47;101513.16;;;8.94;59.47
85082;BME280;75424;50.762;7.178;2024-03-07T10:53:29;101509.13;;;9.14;60.60
85082;BME280;75424;50.762;7.178;2024-03-07T11:01:16;101495.31;;;9.37;59.16
85082;BME280;75424;50.762;7.178;2024-03-07T11:03:45;101490.25;;;9.28;58.42
85082;BME280;75424;50.762;7.178;2024-03-07T11:06:12;101481.28;;;9.32;60.27
85082;BME280;75424;50.762;7.178;2024-03-07T11:08:38;101490.16;;;9.31;59.44
85082;BME280;75424;50.762;7.178;2024-03-07T11:11:04;101487.84;;;9.52;60.11
85082;BME280;75424;50.762;7.178;2024-03-07T11:13:33;101481.03;;;9.76;59.22
85082;BME280;75424;50.762;7.178;2024-03-07T11:16:00;101482.66;;;9.81;58.43
85082;BME280;75424;50.762;7.178;2024-03-07T11:18:26;101474.09;;;10.01;56.55
85082;BME280;75424;50.762;7.178;2024-03-07T11:20:52;101482.25;;;9.95;59.38
85082;BME280;75424;50.762;7.178;2024-03-07T11:23:32;101470.03;;;9.89;58.32
85082;BME280;75424;50.762;7.178;2024-03-07T11:26:05;101473.91;;;9.76;58.46
85082;BME280;75424;50.762;7.178;2024-03-07T11:28:39;101468.72;;;10.04;58.71
85082;BME280;75424;50.762;7.178;2024-03-07T11:33:34;101458.78;;;10.12;57.59
85082;BME280;75424;50.762;7.178;2024-03-07T11:35:59;101461.19;;;10.21;58.93
85082;BME280;75424;50.762;7.178;2024-03-07T11:38:31;101449.59;;;10.23;58.55
85082;BME280;75424;50.762;7.178;2024-03-07T11:41:00;101452.47;;;10.45;57.72
85082;BME280;75424;50.762;7.178;2024-03-07T11:43:30;101445.25;;;10.50;56.51
85082;BME280;75424;50.762;7.178;2024-03-07T11:45:55;101439.69;;;10.57;56.28
85082;BME280;75424;50.762;7.178;2024-03-07T11:48:23;101444.44;;;10.48;56.89
85082;BME280;75424;50.762;7.178;2024-03-07T11:50:48;101439.03;;;10.51;57.54
85082;BME280;75424;50.762;7.178;2024-03-07T11:53:14;101439.31;;;10.69;55.97
85082;BME280;75424;50.762;7.178;2024-03-07T11:55:40;101430.97;;;10.54;56.16
85082;BME280;75424;50.762;7.178;2024-03-07T11:58:20;101429.44;;;10.45;57.46
85082;BME280;75424;50.762;7.178;2024-03-07T12:00:50;101424.81;;;10.52;58.58
85082;BME280;75424;50.762;7.178;2024-03-07T12:03:18;101411.41;;;10.56;56.85
85082;BME280;75424;50.762;7.178;2024-03-07T12:05:46;101418.00;;;10.71;57.64
85082;BME280;75424;50.762;7.178;2024-03-07T12:08:12;101411.22;;;10.88;57.33
85082;BME280;75424;50.762;7.178;2024-03-07T12:10:39;101411.50;;;11.07;57.40
85082;BME280;75424;50.762;7.178;2024-03-07T12:13:06;101405.25;;;11.08;55.89
85082;BME280;75424;50.762;7.178;2024-03-07T12:15:31;101402.84;;;11.00;56.75
85082;BME280;75424;50.762;7.178;2024-03-07T12:17:58;101396.41;;;11.07;56.41
85082;BME280;75424;50.762;7.178;2024-03-07T12:20:27;101402.78;;;11.02;55.84
85082;BME280;75424;50.762;7.178;2024-03-07T12:22:57;101399.50;;;10.94;56.23
85082;BME280;75424;50.762;7.178;2024-03-07T12:25:23;101392.66;;;10.87;56.86
85082;BME280;75424;50.762;7.178;2024-03-07T12:28:21;101384.78;;;11.10;55.85
85082;BME280;75424;50.762;7.178;2024-03-07T12:30:55;101384.09;;;11.29;56.55
85082;BME280;75424;50.762;7.178;2024-03-07T12:33:24;101383.84;;;11.12;55.87
85082;BME280;75424;50.762;7.178;2024-03-07T12:35:52;101376.94;;;11.07;57.13
85082;BME280;75424;50.762;7.178;2024-03-07T12:38:19;101374.97;;;10.86;57.49
85082;BME280;75424;50.762;7.178;2024-03-07T12:40:45;101377.84;;;10.52;55.70
85082;BME280;75424;50.762;7.178;2024-03-07T12:43:20;101383.25;;;10.22;57.14
85082;BME280;75424;50.762;7.178;2024-03-07T12:45:52;101386.03;;;10.17;58.36
85082;BME280;75424;50.762;7.178;2024-03-07T12:48:20;101380.53;;;10.23;57.70
85082;BME280;75424;50.762;7.178;2024-03-07T12:50:49;101380.88;;;10.40;58.10
85082;BME280;75424;50.762;7.178;2024-03-07T12:53:19;101364.53;;;10.54;57.49
85082;BME280;75424;50.762;7.178;2024-03-07T12:55:44;101357.94;;;10.65;56.82
85082;BME280;75424;50.762;7.178;2024-03-07T12:58:10;101353.00;;;10.53;57.84
85082;BME280;75424;50.762;7.178;2024-03-07T13:00:39;101358.34;;;10.53;57.62
85082;BME280;75424;50.762;7.178;2024-03-07T13:03:06;101361.13;;;10.49;58.60
85082;BME280;75424;50.762;7.178;2024-03-07T13:05:32;101358.84;;;10.37;58.29